Urb Quintana, Puerto Rico
Current Conditions -  °F | °C
As of 1:56 PM on Tuesday 21 Oct 2014 (Local Time) from TJSJ Reporting Station
Scattered Clouds Scattered Clouds  
Wind Chill: 85°   Ceiling: Unl
Heat Index: 93°   Visibility: 10mi
Dew Point: 75°   Wind: 15mph
Humidity: 72%   Direction: 40°NE
Pressure: 29.91"   Gusts: NA
Location:  18.4238°N, 66.0515°W
Report Text: TJSJ 211756Z 04013KT 10SM SCT036TCU 29/24 A2991 RMK AO2 SLP126 TCU SW-NW VCSH SW-NW T02940239 10317 20278 56023
Loading
Personal Weather Stations






























Interactive Weather Map
Tropical Storm Tracking
New forecast layout! Learn more

10-Day Weather Forecast

Advertisements
Track Severe Weather on mobile